Halifax (YHZ/CYHZ)

Map

Destinations

Information

Location
Halifax, Nova Scotia, Canada
Local Time
21:04 / 9:04 pm
GMT Time
00:04 / 12:04 am
Gates
Unassigned
No FAA reported delays
METAR CYHZ 252300Z 15011KT 15SM BKN180 05/M03 A3044 RMK AC7 SLP317
TAF TAF CYHZ 252038Z 2521/2618 15012KT P6SM BKN240 FM260300 13012KT P6SM BKN006 OVC100 PROB30 2603/2606 1SM -DZ BR OVC003 FM260600 12012KT P6SM OVC006 PROB30 2606/2613 1SM -DZ BR OVC003 FM261300 15018KT P6SM OVC010 PROB30 2613/2618 5SM -RA -DZ BR OVC006 RMK N